createdAt,value
2018-08-14T00:02:20.538Z,12.23
2018-08-14T00:04:49.311Z,11.17
2018-08-14T00:07:17.528Z,11.73
2018-08-14T00:09:45.674Z,12.20
2018-08-14T00:12:13.810Z,11.60
2018-08-14T00:14:41.961Z,12.07
2018-08-14T00:17:10.151Z,11.77
2018-08-14T00:19:39.046Z,11.83
2018-08-14T00:22:07.175Z,11.70
2018-08-14T00:24:35.361Z,12.50
2018-08-14T00:27:03.526Z,11.70
2018-08-14T00:29:31.678Z,12.67
2018-08-14T00:31:59.827Z,12.30
2018-08-14T00:34:27.982Z,12.37
2018-08-14T00:36:58.014Z,12.90
2018-08-14T00:39:27.229Z,12.17
2018-08-14T00:41:55.396Z,13.83
2018-08-14T00:44:23.572Z,13.63
2018-08-14T00:46:53.797Z,14.67
2018-08-14T00:49:31.856Z,12.70
2018-08-14T00:52:02.542Z,13.23
2018-08-14T00:54:31.928Z,13.27
2018-08-14T00:57:04.534Z,14.37
2018-08-14T00:59:33.619Z,13.20
2018-08-14T01:02:01.955Z,13.27
2018-08-14T01:04:30.152Z,14.80
2018-08-14T01:06:58.331Z,15.40
2018-08-14T01:09:27.537Z,15.60
2018-08-14T01:11:55.706Z,17.90
2018-08-14T01:14:24.902Z,16.20
2018-08-14T01:16:54.769Z,16.47
2018-08-14T01:19:23.011Z,16.43
2018-08-14T01:21:51.165Z,17.50
2018-08-14T01:24:19.344Z,18.00
2018-08-14T01:26:50.205Z,18.33
2018-08-14T01:29:19.142Z,17.33
2018-08-14T01:31:49.894Z,19.20
2018-08-14T01:34:21.302Z,18.10
2018-08-14T01:36:51.482Z,19.23
2018-08-14T01:39:19.644Z,19.77
2018-08-14T01:41:47.829Z,19.60
2018-08-14T01:44:15.989Z,20.90
2018-08-14T01:46:44.173Z,19.67
2018-08-14T01:49:12.710Z,20.57
2018-08-14T01:51:41.115Z,20.30
2018-08-14T01:54:09.742Z,21.30
2018-08-14T01:56:38.080Z,20.50
2018-08-14T01:59:06.709Z,19.93
2018-08-14T02:01:34.869Z,19.80
2018-08-14T02:04:03.045Z,21.13
2018-08-14T02:06:31.858Z,20.73
2018-08-14T02:09:00.095Z,20.80
2018-08-14T02:11:28.465Z,19.87
2018-08-14T02:13:56.592Z,20.10
2018-08-14T02:16:24.765Z,20.07
2018-08-14T02:18:53.078Z,20.70
2018-08-14T02:21:21.284Z,21.83
2018-08-14T02:23:50.224Z,21.43
2018-08-14T02:26:18.461Z,22.60
2018-08-14T02:28:46.618Z,22.03
2018-08-14T02:31:14.805Z,23.57
2018-08-14T02:33:42.970Z,22.60
2018-08-14T02:36:11.151Z,23.37
2018-08-14T02:38:39.632Z,23.63
2018-08-14T02:41:07.801Z,24.33
2018-08-14T02:43:35.970Z,23.20
2018-08-14T02:46:04.174Z,24.47
2018-08-14T02:48:32.310Z,23.87
2018-08-14T02:51:00.503Z,24.80
2018-08-14T02:53:29.487Z,26.87
2018-08-14T02:55:57.672Z,29.67
2018-08-14T02:58:25.835Z,27.30
2018-08-14T03:00:54.162Z,28.83
2018-08-14T03:03:22.383Z,27.63
2018-08-14T03:05:50.572Z,28.47
2018-08-14T03:08:19.119Z,31.00
2018-08-14T03:10:47.360Z,31.93
2018-08-14T03:13:15.609Z,29.23
2018-08-14T03:15:43.775Z,29.30
2018-08-14T03:18:11.971Z,33.17
2018-08-14T03:20:40.296Z,33.33
2018-08-14T03:23:09.408Z,33.80
2018-08-14T03:25:38.043Z,33.10
2018-08-14T03:28:06.633Z,35.07
2018-08-14T03:30:34.870Z,34.27
2018-08-14T03:33:03.090Z,32.83
2018-08-14T03:35:31.221Z,33.77
2018-08-14T03:37:59.393Z,33.63
2018-08-14T03:40:28.551Z,34.10
2018-08-14T03:42:56.773Z,34.10
2018-08-14T03:45:24.901Z,35.13
2018-08-14T03:47:53.101Z,34.70
2018-08-14T03:50:21.277Z,34.13
2018-08-14T03:52:49.449Z,34.10
2018-08-14T03:55:19.505Z,34.23
2018-08-14T03:57:47.770Z,33.70
2018-08-14T04:00:17.360Z,33.23
2018-08-14T04:02:45.544Z,31.27
2018-08-14T04:05:14.233Z,31.30
2018-08-14T04:07:42.641Z,34.10
2018-08-14T04:10:11.824Z,34.10
2018-08-14T04:12:40.505Z,34.53
2018-08-14T04:15:10.104Z,33.23
2018-08-14T04:17:38.309Z,32.50
2018-08-14T04:20:07.782Z,32.60
2018-08-14T04:22:35.979Z,34.77
2018-08-14T04:25:04.683Z,33.70
2018-08-14T04:27:33.691Z,32.53
2018-08-14T04:30:01.886Z,32.27
2018-08-14T04:32:30.066Z,31.97
2018-08-14T04:34:58.195Z,32.73
2018-08-14T04:37:26.430Z,30.60
2018-08-14T04:39:54.606Z,31.93
2018-08-14T04:42:23.088Z,31.27
2018-08-14T04:44:51.354Z,30.37
2018-08-14T04:47:19.512Z,31.20
2018-08-14T04:49:47.679Z,29.20
2018-08-14T04:52:15.857Z,30.50
2018-08-14T04:54:44.073Z,29.97
2018-08-14T04:57:12.240Z,30.23
2018-08-14T04:59:40.484Z,29.53
2018-08-14T05:02:08.673Z,29.57
2018-08-14T05:04:36.843Z,29.50
2018-08-14T05:07:05.552Z,29.50
2018-08-14T05:09:33.702Z,28.47
2018-08-14T05:12:02.579Z,29.37
2018-08-14T05:14:30.745Z,29.23
2018-08-14T05:16:58.922Z,29.50
2018-08-14T05:19:27.130Z,31.33
2018-08-14T05:21:55.294Z,29.97
2018-08-14T05:24:24.486Z,31.97
2018-08-14T05:26:53.075Z,31.30
2018-08-14T05:29:21.246Z,30.30
2018-08-14T05:31:49.397Z,32.27
2018-08-14T05:34:17.601Z,29.97
2018-08-14T05:36:45.825Z,29.90
2018-08-14T05:39:14.054Z,27.87
2018-08-14T05:41:42.212Z,27.57
2018-08-14T05:44:20.350Z,27.43
2018-08-14T05:46:49.068Z,27.80
2018-08-14T05:49:17.282Z,29.80
2018-08-14T05:51:46.293Z,28.93
2018-08-14T05:54:14.463Z,27.43
2018-08-14T05:56:43.761Z,26.90
2018-08-14T05:59:11.946Z,26.73
2018-08-14T06:01:41.462Z,27.40
2018-08-14T06:04:10.022Z,24.90
2018-08-14T06:06:38.245Z,24.10
2018-08-14T06:09:09.462Z,21.73
2018-08-14T06:11:37.716Z,22.50
2018-08-14T06:14:07.299Z,23.73
2018-08-14T06:16:35.481Z,24.73
2018-08-14T06:19:04.140Z,25.63
2018-08-14T06:21:32.328Z,26.33
2018-08-14T06:24:00.557Z,26.80
2018-08-14T06:26:28.821Z,28.67
2018-08-14T06:28:57.020Z,27.77
2018-08-14T06:31:25.282Z,30.60
2018-08-14T06:33:54.188Z,30.40
2018-08-14T06:36:22.452Z,30.00
2018-08-14T06:38:50.729Z,26.93
2018-08-14T06:41:19.016Z,26.40
2018-08-14T06:43:47.976Z,27.60
2018-08-14T06:46:16.257Z,26.20
2018-08-14T06:48:44.451Z,24.00
2018-08-14T06:51:12.973Z,24.50
2018-08-14T06:53:41.177Z,23.70
2018-08-14T06:56:09.358Z,24.50
2018-08-14T06:58:38.340Z,25.40
2018-08-14T07:01:06.600Z,26.13
2018-08-14T07:03:34.825Z,24.00
2018-08-14T07:06:03.099Z,24.87
2018-08-14T07:08:31.282Z,24.87
2018-08-14T07:10:59.530Z,25.03
2018-08-14T07:13:27.694Z,29.17
2018-08-14T07:15:55.868Z,28.97
2018-08-14T07:18:24.043Z,32.00
2018-08-14T07:20:52.213Z,31.23
2018-08-14T07:23:21.002Z,33.47
2018-08-14T07:25:49.192Z,35.77
2018-08-14T07:28:17.413Z,33.10
2018-08-14T07:30:45.558Z,35.23
2018-08-14T07:33:13.705Z,33.97
2018-08-14T07:35:41.895Z,33.20
2018-08-14T07:38:10.066Z,35.00
2018-08-14T07:40:38.238Z,32.80
2018-08-14T07:43:06.496Z,33.00
2018-08-14T07:45:35.414Z,34.03
2018-08-14T07:48:05.541Z,34.60
2018-08-14T07:50:33.818Z,35.37
2018-08-14T07:53:03.031Z,34.03
2018-08-14T07:55:31.704Z,31.20
2018-08-14T07:58:00.064Z,27.00
2018-08-14T08:00:28.133Z,27.27
2018-08-14T08:02:56.305Z,26.27
2018-08-14T08:05:27.378Z,24.80
2018-08-14T08:07:55.614Z,26.57
2018-08-14T08:10:23.812Z,27.40
2018-08-14T08:12:51.905Z,30.20
2018-08-14T08:15:20.600Z,37.57
2018-08-14T08:17:49.869Z,63.33
2018-08-14T08:20:31.671Z,42.23
2018-08-14T08:23:00.451Z,49.70
2018-08-14T08:25:30.074Z,61.23
2018-08-14T08:27:59.083Z,55.10
2018-08-14T08:30:27.637Z,62.13
2018-08-14T08:32:56.034Z,55.67
2018-08-14T08:35:25.105Z,41.60
2018-08-14T08:37:53.281Z,41.33
2018-08-14T08:40:21.466Z,37.27
2018-08-14T08:42:50.288Z,35.63
2018-08-14T08:45:18.514Z,36.90
2018-08-14T08:47:46.669Z,36.70
2018-08-14T08:50:15.507Z,34.03
2018-08-14T08:52:44.373Z,35.20
2018-08-14T08:55:14.473Z,30.77
2018-08-14T08:57:42.646Z,32.63
2018-08-14T09:00:13.595Z,32.30
2018-08-14T09:02:42.598Z,31.90
2018-08-14T09:05:12.769Z,31.77
2018-08-14T09:07:41.322Z,33.37
2018-08-14T09:10:10.945Z,30.20
2018-08-14T09:12:39.389Z,32.60
2018-08-14T09:15:08.234Z,27.83
2018-08-14T09:17:36.527Z,31.80
2018-08-14T09:20:08.026Z,35.43
2018-08-14T09:22:36.281Z,36.27
2018-08-14T09:25:05.947Z,34.93
2018-08-14T09:27:34.157Z,36.87
2018-08-14T09:30:18.938Z,36.57
2018-08-14T09:33:10.123Z,37.90
2018-08-14T09:35:45.593Z,36.90
2018-08-14T09:38:15.802Z,35.90
2018-08-14T09:40:46.233Z,33.27
2018-08-14T09:43:16.433Z,31.60
2018-08-14T09:45:50.265Z,33.80
2018-08-14T09:48:25.225Z,40.67
2018-08-14T09:50:53.470Z,41.07
2018-08-14T09:53:24.151Z,33.53
2018-08-14T09:55:52.389Z,39.87
2018-08-14T09:58:20.545Z,51.57
2018-08-14T10:01:23.942Z,45.47
2018-08-14T10:03:58.084Z,43.10
2018-08-14T10:06:31.822Z,67.20
2018-08-14T10:09:00.051Z,60.57
2018-08-14T10:11:28.218Z,40.80
2018-08-14T10:13:57.389Z,26.70
2018-08-14T10:16:25.590Z,25.10
2018-08-14T10:18:54.098Z,28.63
2018-08-14T10:21:23.869Z,27.93
2018-08-14T10:23:52.089Z,26.30
2018-08-14T10:26:21.232Z,34.93
2018-08-14T10:28:49.424Z,81.03
2018-08-14T10:31:17.613Z,44.60
2018-08-14T10:33:46.802Z,45.23
2018-08-14T10:36:14.978Z,18.83
2018-08-14T10:38:43.909Z,26.00
2018-08-14T10:41:12.124Z,43.93
2018-08-14T10:43:43.700Z,65.40
2018-08-14T10:46:11.979Z,79.50
2018-08-14T10:48:43.841Z,42.27
2018-08-14T10:51:13.099Z,38.17
2018-08-14T10:53:41.294Z,34.70
2018-08-14T10:56:09.617Z,53.20
2018-08-14T10:58:43.274Z,93.00
2018-08-14T11:01:11.560Z,74.30
2018-08-14T11:03:39.737Z,64.33
2018-08-14T11:06:07.885Z,37.77
2018-08-14T11:08:37.094Z,58.60
2018-08-14T11:11:07.232Z,165.53
2018-08-14T11:13:35.429Z,30.90
2018-08-14T11:16:04.374Z,44.60
2018-08-14T11:18:33.938Z,43.23
2018-08-14T11:21:03.195Z,31.23
2018-08-14T11:23:31.369Z,38.93
2018-08-14T11:25:59.533Z,21.50
2018-08-14T11:28:27.739Z,23.73
2018-08-14T11:30:55.888Z,20.50
2018-08-14T11:33:24.147Z,20.03
2018-08-14T11:36:00.381Z,19.40
2018-08-14T11:38:28.622Z,18.13
2018-08-14T11:40:56.763Z,19.03
2018-08-14T11:43:28.781Z,22.43
2018-08-14T11:45:57.491Z,22.17
2018-08-14T11:48:25.710Z,27.93
2018-08-14T11:50:53.934Z,25.00
2018-08-14T11:53:22.736Z,33.73
2018-08-14T11:55:50.924Z,30.33
2018-08-14T11:58:19.113Z,16.27
2018-08-14T12:00:47.297Z,24.00
2018-08-14T12:03:15.475Z,20.50
2018-08-14T12:05:43.630Z,26.67
2018-08-14T12:08:12.829Z,17.53
2018-08-14T12:10:41.800Z,13.67
2018-08-14T12:13:09.998Z,12.10
2018-08-14T12:15:38.181Z,13.10
2018-08-14T12:18:06.368Z,17.13
2018-08-14T12:20:34.530Z,22.93
2018-08-14T12:23:02.697Z,23.20
2018-08-14T12:25:30.866Z,26.30
2018-08-14T12:27:59.783Z,20.53
2018-08-14T12:30:28.027Z,19.77
2018-08-14T12:32:56.222Z,21.73
2018-08-14T12:35:24.370Z,19.23
2018-08-14T12:37:52.573Z,20.53
2018-08-14T12:40:20.754Z,22.40
2018-08-14T12:42:48.908Z,19.70
2018-08-14T12:45:19.816Z,22.20
2018-08-14T12:47:48.133Z,21.50
2018-08-14T12:50:17.537Z,20.63
2018-08-14T12:52:45.713Z,19.50
2018-08-14T12:55:14.497Z,20.07
2018-08-14T12:57:42.855Z,21.17
2018-08-14T13:00:17.044Z,17.33
2018-08-14T13:02:45.350Z,16.30
2018-08-14T13:05:14.051Z,17.40
2018-08-14T13:07:42.249Z,16.47
2018-08-14T13:10:11.441Z,15.30
2018-08-14T13:12:40.039Z,16.33
2018-08-14T13:15:10.261Z,16.20
2018-08-14T13:17:38.558Z,14.00
2018-08-14T13:20:08.262Z,14.50
2018-08-14T13:22:37.130Z,14.00
2018-08-14T13:25:06.942Z,12.80
2018-08-14T13:27:35.313Z,14.43
2018-08-14T13:30:03.462Z,14.63
2018-08-14T13:32:31.638Z,13.37
2018-08-14T13:34:59.807Z,13.27
2018-08-14T13:37:27.999Z,12.93
2018-08-14T13:39:56.960Z,12.30
2018-08-14T13:42:25.165Z,13.83
2018-08-14T13:44:53.324Z,13.00
2018-08-14T13:47:21.520Z,13.67
2018-08-14T13:49:49.685Z,11.90
2018-08-14T13:52:18.897Z,11.87
2018-08-14T13:54:47.746Z,12.13
2018-08-14T13:57:16.460Z,12.03
2018-08-14T13:59:44.814Z,13.20
2018-08-14T14:02:13.035Z,13.47
2018-08-14T14:04:41.331Z,12.97
2018-08-14T14:07:10.249Z,14.00
2018-08-14T14:09:38.464Z,13.57
2018-08-14T14:12:06.640Z,13.20
2018-08-14T14:14:35.282Z,12.87
2018-08-14T14:17:05.063Z,15.07
2018-08-14T14:19:33.630Z,13.77
2018-08-14T14:22:01.973Z,14.57
2018-08-14T14:24:30.174Z,14.63
2018-08-14T14:26:58.402Z,15.73
2018-08-14T14:29:26.641Z,16.00
2018-08-14T14:31:55.679Z,16.13
2018-08-14T14:34:23.905Z,15.67
2018-08-14T14:36:52.194Z,15.17
2018-08-14T14:39:20.431Z,17.03
2018-08-14T14:41:48.624Z,14.13
2018-08-14T14:44:16.784Z,13.10
2018-08-14T14:46:45.232Z,13.03
2018-08-14T14:49:13.416Z,14.30
2018-08-14T14:51:41.600Z,11.80
2018-08-14T14:54:09.756Z,10.67
2018-08-14T14:56:37.957Z,10.23
2018-08-14T14:59:06.167Z,10.90
2018-08-14T15:01:34.408Z,10.83
2018-08-14T15:04:03.314Z,12.37
2018-08-14T15:06:31.568Z,12.70
2018-08-14T15:08:59.778Z,14.20
2018-08-14T15:11:27.924Z,12.67
2018-08-14T15:13:56.078Z,14.00
2018-08-14T15:16:25.306Z,12.50
2018-08-14T15:19:03.574Z,11.63
2018-08-14T15:21:31.870Z,11.10
2018-08-14T15:24:00.762Z,10.37
2018-08-14T15:26:28.947Z,9.37
2018-08-14T15:29:05.640Z,9.83
2018-08-14T15:31:34.991Z,7.70
2018-08-14T15:34:03.778Z,8.23
2018-08-14T15:36:32.913Z,8.63
2018-08-14T15:39:02.226Z,6.83
2018-08-14T15:41:30.802Z,7.03
2018-08-14T15:43:59.733Z,6.93
2018-08-14T15:46:27.941Z,7.57
2018-08-14T15:48:56.134Z,9.50
2018-08-14T15:51:26.337Z,6.70
2018-08-14T15:53:55.554Z,7.13
2018-08-14T15:56:24.803Z,6.63
2018-08-14T15:58:53.043Z,8.33
2018-08-14T16:01:21.986Z,5.93
2018-08-14T16:03:50.140Z,8.20
2018-08-14T16:06:22.136Z,5.93
2018-08-14T16:08:50.291Z,7.73
2018-08-14T16:11:19.542Z,5.90
2018-08-14T16:13:51.715Z,5.60
2018-08-14T16:16:26.079Z,5.93
2018-08-14T16:27:45.690Z,7.20
2018-08-14T16:36:03.183Z,4.73
2018-08-14T16:41:47.342Z,6.00
2018-08-14T16:44:39.285Z,5.73
2018-08-14T16:49:15.205Z,5.33
2018-08-14T17:00:47.574Z,5.33
2018-08-14T17:03:49.553Z,8.57
2018-08-14T17:09:29.548Z,5.40
2018-08-14T17:14:44.237Z,5.47
2018-08-14T17:17:20.219Z,5.80
2018-08-14T17:25:35.457Z,5.90
2018-08-14T17:28:09.196Z,7.07
2018-08-14T17:30:38.202Z,6.20
2018-08-14T17:33:06.571Z,5.60
2018-08-14T17:35:35.894Z,8.90
2018-08-14T17:38:06.165Z,7.93
2018-08-14T17:40:35.721Z,5.87
2018-08-14T17:43:05.504Z,5.47
2018-08-14T17:45:33.777Z,6.83
2018-08-14T17:48:04.246Z,7.40
2018-08-14T17:50:33.059Z,8.07
2018-08-14T17:53:01.258Z,6.30
2018-08-14T17:55:29.489Z,6.87
2018-08-14T17:57:58.143Z,9.10
2018-08-14T18:00:28.998Z,5.37
2018-08-14T18:02:58.781Z,5.43
2018-08-14T18:05:27.071Z,5.67
2018-08-14T18:07:55.362Z,4.20
2018-08-14T18:10:24.318Z,6.43
2018-08-14T18:12:53.113Z,5.63
2018-08-14T18:15:22.162Z,6.63
2018-08-14T18:17:51.207Z,4.20
2018-08-14T18:20:25.480Z,7.93
2018-08-14T18:22:53.713Z,7.97
2018-08-14T18:25:23.133Z,5.60
2018-08-14T18:27:51.733Z,7.43
2018-08-14T18:30:20.815Z,5.67
2018-08-14T18:32:49.065Z,5.43
2018-08-14T18:35:17.878Z,6.40
2018-08-14T18:37:47.824Z,4.97
2018-08-14T18:40:18.886Z,5.00
2018-08-14T18:42:47.263Z,11.60
2018-08-14T18:45:19.989Z,6.67
2018-08-14T18:47:48.148Z,6.30
2018-08-14T18:50:16.949Z,6.73
2018-08-14T18:52:45.139Z,7.43
2018-08-14T18:55:15.145Z,8.33
2018-08-14T18:57:44.480Z,6.93
2018-08-14T19:00:24.225Z,6.83
2018-08-14T19:02:53.398Z,7.70
2018-08-14T19:05:22.077Z,5.03
2018-08-14T19:07:50.266Z,8.23
2018-08-14T19:10:19.650Z,9.33
2018-08-14T19:12:48.709Z,7.60
2018-08-14T19:15:50.764Z,8.40
2018-08-14T19:18:18.915Z,6.40
2018-08-14T19:20:47.045Z,6.73
2018-08-14T19:23:15.957Z,6.57
2018-08-14T19:25:44.130Z,4.70
2018-08-14T19:28:12.290Z,6.00
2018-08-14T19:30:40.433Z,5.73
2018-08-14T19:33:08.607Z,5.33
2018-08-14T19:35:36.920Z,6.33
2018-08-14T19:38:05.525Z,4.83
2018-08-14T19:40:33.767Z,4.90
2018-08-14T19:43:01.954Z,4.23
2018-08-14T19:45:30.138Z,7.30
2018-08-14T19:47:58.286Z,6.37
2018-08-14T19:50:26.463Z,6.37
2018-08-14T19:52:54.659Z,10.93
2018-08-14T19:55:23.354Z,4.43
2018-08-14T19:57:51.777Z,5.63
2018-08-14T20:00:24.590Z,4.63
2018-08-14T20:02:53.085Z,7.43
2018-08-14T20:05:21.165Z,8.47
2018-08-14T20:07:49.642Z,5.43
2018-08-14T20:10:17.780Z,5.07
2018-08-14T20:12:46.070Z,7.23
2018-08-14T20:15:15.817Z,4.80
2018-08-14T20:17:43.985Z,5.10
2018-08-14T20:20:16.074Z,8.23
2018-08-14T20:22:44.350Z,7.33
2018-08-14T20:25:12.490Z,6.30
2018-08-14T20:27:40.627Z,4.53
2018-08-14T20:30:11.709Z,7.97
2018-08-14T20:32:40.357Z,5.60
2018-08-14T20:35:10.293Z,8.63
2018-08-14T20:37:38.442Z,6.37
2018-08-14T20:40:10.545Z,3.20
2018-08-14T20:42:38.745Z,5.20
2018-08-14T20:45:08.749Z,7.47
2018-08-14T20:47:36.957Z,5.57
2018-08-14T20:50:07.364Z,5.37
2018-08-14T20:52:35.531Z,5.70
2018-08-14T20:55:03.811Z,4.90
2018-08-14T20:57:31.957Z,4.70
2018-08-14T21:00:00.119Z,3.80
2018-08-14T21:02:28.261Z,6.57
2018-08-14T21:04:56.419Z,5.23
2018-08-14T21:07:25.268Z,7.40
2018-08-14T21:09:53.445Z,4.47
2018-08-14T21:12:27.081Z,8.10
2018-08-14T21:14:55.411Z,4.33
2018-08-14T21:17:23.557Z,12.10
2018-08-14T21:19:51.705Z,6.07
2018-08-14T21:22:19.842Z,5.67
2018-08-14T21:24:47.982Z,5.10
2018-08-14T21:27:16.474Z,6.97
2018-08-14T21:29:44.654Z,4.87
2018-08-14T21:32:13.162Z,6.27
2018-08-14T21:34:41.332Z,11.03
2018-08-14T21:37:09.473Z,4.83
2018-08-14T21:39:37.629Z,4.67
2018-08-14T21:42:06.201Z,3.90
2018-08-14T21:44:34.687Z,9.03
2018-08-14T21:47:02.926Z,9.90
2018-08-14T21:49:31.074Z,7.23
2018-08-14T21:51:59.316Z,5.20
2018-08-14T21:54:27.364Z,6.40
2018-08-14T21:56:55.509Z,4.70
2018-08-14T21:59:24.174Z,5.47
2018-08-14T22:01:52.523Z,5.30
2018-08-14T22:04:20.716Z,3.83
2018-08-14T22:06:48.862Z,5.50
2018-08-14T22:09:17.022Z,5.00
2018-08-14T22:11:45.172Z,5.67
2018-08-14T22:14:13.322Z,5.83
2018-08-14T22:16:42.090Z,7.40
2018-08-14T22:19:10.334Z,5.77
2018-08-14T22:21:38.526Z,6.60
2018-08-14T22:24:06.698Z,4.70
2018-08-14T22:26:34.838Z,3.47
2018-08-14T22:29:03.005Z,5.10
2018-08-14T22:31:31.125Z,5.00
2018-08-14T22:33:59.846Z,4.70
2018-08-14T22:36:28.127Z,7.83
2018-08-14T22:38:56.264Z,8.87
2018-08-14T22:41:24.406Z,4.73
2018-08-14T22:43:52.531Z,5.87
2018-08-14T22:46:20.661Z,6.03
2018-08-14T22:48:49.534Z,8.33
2018-08-14T22:51:17.681Z,5.30
2018-08-14T22:53:45.817Z,9.30
2018-08-14T22:56:13.957Z,5.33
2018-08-14T22:58:42.093Z,6.73
2018-08-14T23:01:10.250Z,5.97
2018-08-14T23:03:38.384Z,6.00
2018-08-14T23:06:07.538Z,3.97
2018-08-14T23:08:35.717Z,10.37
2018-08-14T23:11:03.870Z,4.53
2018-08-14T23:13:32.022Z,6.87
2018-08-14T23:16:04.574Z,6.30
2018-08-14T23:18:33.550Z,4.83
2018-08-14T23:21:01.701Z,4.63
2018-08-14T23:23:30.704Z,5.90
2018-08-14T23:25:58.957Z,5.90
2018-08-14T23:28:27.157Z,5.40
2018-08-14T23:30:55.301Z,3.30
2018-08-14T23:33:23.437Z,3.00
2018-08-14T23:35:51.580Z,3.57
2018-08-14T23:38:19.712Z,3.83
2018-08-14T23:40:48.720Z,4.13
2018-08-14T23:43:16.860Z,3.93
2018-08-14T23:45:45.023Z,3.37
2018-08-14T23:48:13.159Z,3.80
2018-08-14T23:50:41.300Z,7.03
2018-08-14T23:53:09.453Z,3.63
2018-08-14T23:55:37.588Z,3.67
2018-08-14T23:58:06.621Z,4.60
